createdAt,value
2022-10-11T00:02:10.135Z,3.53
2022-10-11T00:04:37.497Z,3.97
2022-10-11T00:07:04.825Z,3.50
2022-10-11T00:09:32.629Z,3.92
2022-10-11T00:11:59.795Z,4.13
2022-10-11T00:14:27.450Z,3.92
2022-10-11T00:16:55.060Z,4.43
2022-10-11T00:19:22.369Z,4.10
2022-10-11T00:21:49.766Z,3.95
2022-10-11T00:24:17.184Z,3.90
2022-10-11T00:26:46.932Z,4.50
2022-10-11T00:29:14.281Z,3.60
2022-10-11T00:31:41.501Z,4.22
2022-10-11T00:34:08.841Z,4.25
2022-10-11T00:36:35.911Z,4.03
2022-10-11T00:39:03.881Z,3.70
2022-10-11T00:41:30.988Z,3.72
2022-10-11T00:44:19.680Z,4.60
2022-10-11T00:46:55.036Z,4.32
2022-10-11T00:49:31.753Z,3.83
2022-10-11T00:52:01.964Z,3.47
2022-10-11T00:54:31.849Z,4.25
2022-10-11T00:57:03.943Z,3.67
2022-10-11T00:59:35.409Z,4.45
2022-10-11T01:02:03.174Z,4.93
2022-10-11T01:04:30.238Z,4.30
2022-10-11T01:06:58.088Z,3.90
2022-10-11T01:09:26.303Z,3.90
2022-10-11T01:11:55.523Z,4.15
2022-10-11T01:14:50.360Z,3.70
2022-10-11T01:17:20.223Z,4.20
2022-10-11T01:20:01.825Z,4.28
2022-10-11T01:22:39.750Z,4.20
2022-10-11T01:25:25.281Z,3.67
2022-10-11T01:28:04.840Z,4.07
2022-10-11T01:30:33.496Z,3.95
2022-10-11T01:33:15.310Z,4.07
2022-10-11T01:36:28.611Z,3.90
2022-10-11T01:39:04.399Z,4.45
2022-10-11T01:41:37.218Z,3.60
2022-10-11T01:44:05.027Z,4.22
2022-10-11T01:46:33.182Z,3.40
2022-10-11T01:49:01.658Z,4.30
2022-10-11T01:51:47.136Z,3.90
2022-10-11T01:54:49.905Z,3.17
2022-10-11T01:57:36.576Z,4.45
2022-10-11T02:00:25.047Z,4.03
2022-10-11T02:03:13.523Z,4.55
2022-10-11T02:06:01.527Z,4.75
2022-10-11T02:08:53.005Z,4.47
2022-10-11T02:11:26.797Z,4.30
2022-10-11T02:14:05.028Z,4.43
2022-10-11T02:16:37.711Z,4.85
2022-10-11T02:19:06.626Z,4.30
2022-10-11T02:21:34.781Z,4.03
2022-10-11T02:24:09.710Z,4.70
2022-10-11T02:26:39.161Z,5.10
2022-10-11T02:29:08.083Z,4.22
2022-10-11T02:31:35.856Z,4.68
2022-10-11T02:34:13.185Z,5.10
2022-10-11T02:37:06.412Z,5.18
2022-10-11T02:39:45.257Z,4.97
2022-10-11T02:42:18.772Z,5.68
2022-10-11T02:45:00.946Z,5.43
2022-10-11T02:47:31.708Z,4.73
2022-10-11T02:50:02.136Z,5.10
2022-10-11T02:52:29.449Z,4.93
2022-10-11T02:54:56.488Z,5.50
2022-10-11T02:57:23.605Z,5.75
2022-10-11T02:59:50.675Z,5.93
2022-10-11T03:02:17.783Z,5.35
2022-10-11T03:04:44.955Z,4.97
2022-10-11T03:07:12.024Z,5.78
2022-10-11T03:09:39.071Z,5.15
2022-10-11T03:12:06.522Z,4.97
2022-10-11T03:14:33.593Z,5.57
2022-10-11T03:17:17.340Z,6.82
2022-10-11T03:19:47.834Z,4.93
2022-10-11T03:22:14.972Z,4.70
2022-10-11T03:24:42.031Z,4.37
2022-10-11T03:27:09.095Z,5.10
2022-10-11T03:29:36.172Z,4.47
2022-10-11T03:32:03.485Z,5.00
2022-10-11T03:34:30.671Z,4.78
2022-10-11T03:36:57.804Z,5.50
2022-10-11T03:39:24.851Z,4.63
2022-10-11T03:41:51.970Z,4.30
2022-10-11T03:44:19.333Z,5.03
2022-10-11T03:46:46.395Z,4.28
2022-10-11T03:49:13.584Z,3.87
2022-10-11T03:51:40.673Z,3.83
2022-10-11T03:54:08.019Z,3.70
2022-10-11T03:56:35.117Z,3.28
2022-10-11T03:59:02.246Z,3.00
2022-10-11T04:01:29.410Z,3.20
2022-10-11T04:03:57.326Z,3.00
2022-10-11T04:06:24.423Z,3.03
2022-10-11T04:08:51.558Z,2.83
2022-10-11T04:11:18.656Z,1.80
2022-10-11T04:13:45.781Z,1.57
2022-10-11T04:16:13.144Z,2.30
2022-10-11T04:18:40.312Z,1.33
2022-10-11T04:21:07.541Z,0.95
2022-10-11T04:23:35.025Z,1.50
2022-10-11T04:26:07.436Z,1.20
2022-10-11T04:28:35.538Z,1.05
2022-10-11T04:31:05.029Z,1.30
2022-10-11T04:33:32.173Z,0.80
2022-10-11T04:35:59.235Z,1.23
2022-10-11T04:38:27.040Z,0.67
2022-10-11T04:40:54.094Z,1.30
2022-10-11T04:43:21.196Z,0.68
2022-10-11T04:45:51.203Z,0.88
2022-10-11T04:48:20.482Z,1.55
2022-10-11T04:50:47.563Z,0.90
2022-10-11T04:53:14.908Z,1.05
2022-10-11T04:55:42.099Z,0.90
2022-10-11T04:58:09.225Z,1.25
2022-10-11T05:00:36.298Z,1.17
2022-10-11T05:03:03.489Z,1.70
2022-10-11T05:05:30.510Z,1.30
2022-10-11T05:07:57.602Z,0.80
2022-10-11T05:10:24.725Z,1.50
2022-10-11T05:12:51.854Z,1.75
2022-10-11T05:15:18.952Z,1.30
2022-10-11T05:17:46.295Z,1.63
2022-10-11T05:20:13.448Z,1.50
2022-10-11T05:22:40.520Z,1.88
2022-10-11T05:25:07.792Z,1.38
2022-10-11T05:27:34.975Z,1.53
2022-10-11T05:30:02.018Z,1.40
2022-10-11T05:32:29.053Z,1.40
2022-10-11T05:34:56.231Z,1.67
2022-10-11T05:37:23.342Z,1.63
2022-10-11T05:39:50.497Z,1.50
2022-10-11T05:42:17.548Z,1.95
2022-10-11T05:44:44.619Z,2.00
2022-10-11T05:47:11.838Z,1.23
2022-10-11T05:49:38.890Z,1.50
2022-10-11T05:52:09.022Z,1.67
2022-10-11T05:54:36.092Z,1.27
2022-10-11T05:57:03.180Z,1.00
2022-10-11T05:59:30.483Z,2.03
2022-10-11T06:01:57.568Z,1.38
2022-10-11T06:04:24.806Z,1.43
2022-10-11T06:06:51.840Z,1.40
2022-10-11T06:09:18.958Z,2.10
2022-10-11T06:11:46.168Z,1.00
2022-10-11T06:14:13.462Z,1.27
2022-10-11T06:16:40.492Z,1.43
2022-10-11T06:19:07.662Z,1.25
2022-10-11T06:21:34.767Z,1.15
2022-10-11T06:24:02.569Z,1.60
2022-10-11T06:26:30.017Z,1.42
2022-10-11T06:28:57.369Z,1.77
2022-10-11T06:31:24.936Z,1.25
2022-10-11T06:33:52.037Z,1.30
2022-10-11T06:36:19.129Z,2.08
2022-10-11T06:38:46.210Z,1.48
2022-10-11T06:41:17.507Z,1.30
2022-10-11T06:43:45.703Z,1.48
2022-10-11T06:46:13.061Z,1.67
2022-10-11T06:48:45.048Z,1.40
2022-10-11T06:51:12.978Z,2.10
2022-10-11T06:53:40.405Z,1.57
2022-10-11T06:56:12.387Z,1.45
2022-10-11T06:58:40.028Z,1.75
2022-10-11T07:01:09.926Z,1.65
2022-10-11T07:03:37.217Z,2.05
2022-10-11T07:06:09.303Z,1.80
2022-10-11T07:08:37.441Z,1.52
2022-10-11T07:11:09.801Z,1.77
2022-10-11T07:13:37.929Z,1.83
2022-10-11T07:16:08.123Z,2.13
2022-10-11T07:18:35.640Z,1.80
2022-10-11T07:21:04.447Z,1.60
2022-10-11T07:23:31.595Z,1.60
2022-10-11T07:25:58.905Z,2.47
2022-10-11T07:28:26.506Z,1.88
2022-10-11T07:30:53.680Z,1.70
2022-10-11T07:33:20.787Z,2.20
2022-10-11T07:35:48.849Z,2.22
2022-10-11T07:38:16.632Z,2.25
2022-10-11T07:40:46.051Z,2.35
2022-10-11T07:43:13.682Z,1.90
2022-10-11T07:45:42.044Z,1.65
2022-10-11T07:48:09.285Z,2.75
2022-10-11T07:50:36.788Z,2.22
2022-10-11T07:53:04.320Z,1.95
2022-10-11T07:55:35.547Z,1.57
2022-10-11T07:58:02.579Z,1.85
2022-10-11T08:00:29.681Z,2.05
2022-10-11T08:02:56.984Z,1.85
2022-10-11T08:05:24.119Z,1.58
2022-10-11T08:07:51.177Z,1.63
2022-10-11T08:10:18.566Z,2.55
2022-10-11T08:12:47.908Z,2.67
2022-10-11T08:15:15.047Z,1.85
2022-10-11T08:17:42.254Z,2.00
2022-10-11T08:20:09.893Z,1.23
2022-10-11T08:22:37.009Z,1.70
2022-10-11T08:25:04.438Z,1.42
2022-10-11T08:27:31.758Z,1.40
2022-10-11T08:29:58.885Z,1.40
2022-10-11T08:32:25.947Z,1.50
2022-10-11T08:34:53.065Z,1.92
2022-10-11T08:37:20.127Z,1.08
2022-10-11T08:39:47.327Z,1.10
2022-10-11T08:42:20.289Z,1.27
2022-10-11T08:45:09.984Z,1.40
2022-10-11T08:47:41.154Z,1.40
2022-10-11T08:50:20.382Z,1.65
2022-10-11T08:52:56.673Z,1.10
2022-10-11T08:55:29.075Z,1.38
2022-10-11T08:57:56.581Z,1.53
2022-10-11T09:00:23.999Z,1.38
2022-10-11T09:03:21.989Z,1.15
2022-10-11T09:06:24.111Z,1.05
2022-10-11T09:09:23.583Z,0.80
2022-10-11T09:12:10.836Z,1.47
2022-10-11T09:15:02.216Z,1.23
2022-10-11T09:17:47.122Z,1.20
2022-10-11T09:20:23.050Z,1.20
2022-10-11T09:23:27.911Z,1.77
2022-10-11T09:25:59.956Z,0.93
2022-10-11T09:28:48.676Z,1.00
2022-10-11T09:31:16.159Z,1.10
2022-10-11T09:33:48.044Z,1.02
2022-10-11T09:36:45.533Z,1.00
2022-10-11T09:39:29.734Z,1.43
2022-10-11T09:42:07.721Z,0.90
2022-10-11T09:44:46.690Z,1.02
2022-10-11T09:47:22.909Z,1.00
2022-10-11T09:49:57.914Z,1.40
2022-10-11T09:52:25.549Z,1.30
2022-10-11T09:54:58.063Z,0.90
2022-10-11T09:57:26.919Z,1.42
2022-10-11T10:00:24.761Z,0.90
2022-10-11T10:02:58.237Z,1.05
2022-10-11T10:05:33.779Z,1.07
2022-10-11T10:08:10.125Z,1.23
2022-10-11T10:10:40.400Z,0.90
2022-10-11T10:13:22.254Z,0.70
2022-10-11T10:15:55.623Z,0.90
2022-10-11T10:18:25.097Z,0.70
2022-10-11T10:20:54.835Z,1.00
2022-10-11T10:23:25.723Z,0.70
2022-10-11T10:26:13.286Z,0.70
2022-10-11T10:29:21.098Z,1.38
2022-10-11T10:32:13.292Z,0.70
2022-10-11T10:34:36.921Z,0.90
2022-10-11T10:37:14.765Z,0.80
2022-10-11T10:39:46.370Z,0.50
2022-10-11T10:42:18.509Z,1.00
2022-10-11T10:44:54.120Z,1.00
2022-10-11T10:47:39.575Z,0.85
2022-10-11T10:50:24.175Z,0.93
2022-10-11T10:53:13.068Z,0.90
2022-10-11T10:55:45.289Z,0.85
2022-10-11T10:58:23.867Z,1.20
2022-10-11T11:00:55.697Z,0.70
2022-10-11T11:03:52.599Z,1.00
2022-10-11T11:06:35.697Z,0.80
2022-10-11T11:09:06.805Z,1.15
2022-10-11T11:11:58.779Z,0.73
2022-10-11T11:14:31.786Z,0.93
2022-10-11T11:17:25.922Z,1.10
2022-10-11T11:20:15.632Z,0.75
2022-10-11T11:23:04.504Z,0.65
2022-10-11T11:25:45.099Z,1.20
2022-10-11T11:28:41.507Z,1.20
2022-10-11T11:31:17.686Z,0.55
2022-10-11T11:34:02.990Z,0.73
2022-10-11T11:36:42.610Z,0.70
2022-10-11T11:39:24.933Z,1.00
2022-10-11T11:42:04.890Z,0.73
2022-10-11T11:44:36.227Z,0.65
2022-10-11T11:47:07.390Z,1.38
2022-10-11T11:49:38.444Z,1.20
2022-10-11T11:52:08.356Z,0.67
2022-10-11T11:54:41.424Z,0.68
2022-10-11T11:57:39.647Z,0.90
2022-10-11T12:00:08.978Z,0.82
2022-10-11T12:02:57.146Z,0.70
2022-10-11T12:05:31.033Z,0.67
2022-10-11T12:08:00.900Z,0.88
2022-10-11T12:10:36.084Z,0.70
2022-10-11T12:13:12.738Z,0.80
2022-10-11T12:15:40.047Z,0.75
2022-10-11T12:18:17.156Z,0.80
2022-10-11T12:20:44.456Z,0.80
2022-10-11T12:23:29.566Z,0.95
2022-10-11T12:26:27.356Z,0.73
2022-10-11T12:29:04.867Z,0.80
2022-10-11T12:31:36.283Z,0.43
2022-10-11T12:34:09.322Z,0.35
2022-10-11T12:36:47.138Z,0.65
2022-10-11T12:39:20.256Z,0.98
2022-10-11T12:41:47.639Z,0.50
2022-10-11T12:44:28.893Z,0.63
2022-10-11T12:46:57.724Z,0.57
2022-10-11T12:49:35.444Z,1.20
2022-10-11T12:52:21.838Z,0.73
2022-10-11T12:55:29.968Z,0.80
2022-10-11T12:58:12.564Z,0.90
2022-10-11T13:00:39.516Z,0.43
2022-10-11T13:03:32.216Z,0.85
2022-10-11T13:06:04.741Z,0.52
2022-10-11T13:08:37.844Z,0.75
2022-10-11T13:11:07.993Z,0.57
2022-10-11T13:13:44.602Z,0.70
2022-10-11T13:16:17.507Z,0.75
2022-10-11T13:18:47.873Z,0.50
2022-10-11T13:21:30.148Z,0.85
2022-10-11T13:24:02.175Z,0.70
2022-10-11T13:26:30.985Z,0.95
2022-10-11T13:29:00.041Z,0.98
2022-10-11T13:31:27.346Z,0.80
2022-10-11T13:33:56.585Z,0.93
2022-10-11T13:36:26.684Z,0.70
2022-10-11T13:38:57.084Z,0.65
2022-10-11T13:41:27.062Z,0.57
2022-10-11T13:43:56.120Z,0.40
2022-10-11T13:46:25.373Z,0.75
2022-10-11T13:49:06.824Z,0.60
2022-10-11T13:51:37.202Z,0.65
2022-10-11T13:54:07.148Z,0.63
2022-10-11T13:56:42.659Z,0.40
2022-10-11T13:59:23.324Z,0.80
2022-10-11T14:02:04.395Z,0.77
2022-10-11T14:04:39.555Z,1.05
2022-10-11T14:07:07.062Z,1.13
2022-10-11T14:09:37.426Z,0.60
2022-10-11T14:12:40.741Z,1.00
2022-10-11T14:15:32.901Z,0.80
2022-10-11T14:18:01.237Z,0.65
2022-10-11T14:20:39.216Z,0.60
2022-10-11T14:23:07.009Z,0.30
2022-10-11T14:25:34.385Z,0.75
2022-10-11T14:28:01.548Z,1.33
2022-10-11T14:30:31.758Z,0.68
2022-10-11T14:33:01.193Z,0.50
2022-10-11T14:35:30.802Z,0.70
2022-10-11T14:37:58.380Z,0.82
2022-10-11T14:40:28.526Z,1.10
2022-10-11T14:42:55.897Z,1.00
2022-10-11T14:45:23.604Z,1.38
2022-10-11T14:47:51.804Z,0.80
2022-10-11T14:50:30.487Z,1.00
2022-10-11T14:52:58.124Z,0.70
2022-10-11T14:55:25.460Z,1.00
2022-10-11T14:57:56.472Z,1.17
2022-10-11T15:00:27.006Z,1.27
2022-10-11T15:02:54.675Z,1.20
2022-10-11T15:05:23.349Z,1.47
2022-10-11T15:07:50.911Z,0.93
2022-10-11T15:10:28.715Z,0.95
2022-10-11T15:12:56.477Z,0.60
2022-10-11T15:15:26.843Z,0.90
2022-10-11T15:17:56.334Z,0.90
2022-10-11T15:20:33.412Z,0.90
2022-10-11T15:23:01.207Z,0.98
2022-10-11T15:25:29.317Z,0.80
2022-10-11T15:27:57.766Z,0.93
2022-10-11T15:30:30.986Z,1.20
2022-10-11T15:32:58.410Z,0.70
2022-10-11T15:35:27.097Z,0.95
2022-10-11T15:37:57.255Z,1.05
2022-10-11T15:40:33.564Z,0.57
2022-10-11T15:43:00.740Z,0.87
2022-10-11T15:45:28.802Z,0.82
2022-10-11T15:47:56.074Z,0.80
2022-10-11T15:50:35.186Z,0.90
2022-10-11T15:53:11.408Z,0.90
2022-10-11T15:55:41.279Z,1.13
2022-10-11T15:58:35.976Z,0.65
2022-10-11T16:01:17.005Z,1.30
2022-10-11T16:03:45.107Z,1.13
2022-10-11T16:06:13.326Z,1.02
2022-10-11T16:08:40.696Z,0.83
2022-10-11T16:11:09.285Z,0.90
2022-10-11T16:13:36.389Z,1.42
2022-10-11T16:16:08.566Z,0.52
2022-10-11T16:18:36.374Z,0.60
2022-10-11T16:21:09.374Z,0.73
2022-10-11T16:23:37.700Z,0.88
2022-10-11T16:26:08.309Z,0.65
2022-10-11T16:28:36.130Z,0.73
2022-10-11T16:31:11.253Z,1.00
2022-10-11T16:33:45.562Z,0.60
2022-10-11T16:36:35.618Z,0.73
2022-10-11T16:39:12.912Z,0.80
2022-10-11T16:41:40.529Z,1.10
2022-10-11T16:44:07.836Z,0.57
2022-10-11T16:46:34.937Z,0.90
2022-10-11T16:49:02.108Z,1.35
2022-10-11T16:51:29.789Z,0.75
2022-10-11T16:53:57.147Z,0.95
2022-10-11T16:56:25.145Z,0.98
2022-10-11T16:58:53.405Z,1.43
2022-10-11T17:01:21.329Z,0.98
2022-10-11T17:03:50.078Z,1.55
2022-10-11T17:06:17.814Z,0.88
2022-10-11T17:08:45.313Z,0.98
2022-10-11T17:11:12.610Z,1.50
2022-10-11T17:13:39.931Z,1.35
2022-10-11T17:16:07.868Z,1.65
2022-10-11T17:18:35.464Z,1.77
2022-10-11T17:21:07.595Z,1.77
2022-10-11T17:23:35.715Z,1.97
2022-10-11T17:26:11.221Z,2.05
2022-10-11T17:28:39.054Z,3.40
2022-10-11T17:31:07.650Z,2.90
2022-10-11T17:33:35.475Z,2.70
2022-10-11T17:36:04.699Z,2.63
2022-10-11T17:38:32.054Z,3.00
2022-10-11T17:41:04.834Z,2.67
2022-10-11T17:43:32.109Z,3.10
2022-10-11T17:46:01.078Z,3.05
2022-10-11T17:48:28.855Z,3.33
2022-10-11T17:50:56.075Z,3.72
2022-10-11T17:53:23.454Z,3.25
2022-10-11T17:55:50.705Z,3.15
2022-10-11T17:58:18.385Z,3.47
2022-10-11T18:00:45.650Z,3.23
2022-10-11T18:03:12.796Z,3.22
2022-10-11T18:05:40.914Z,3.97
2022-10-11T18:08:08.674Z,3.55
2022-10-11T18:10:36.968Z,3.13
2022-10-11T18:13:06.644Z,3.70
2022-10-11T18:15:34.245Z,3.60
2022-10-11T18:18:01.946Z,4.13
2022-10-11T18:20:29.093Z,3.33
2022-10-11T18:22:56.215Z,4.40
2022-10-11T18:25:23.386Z,4.53
2022-10-11T18:27:51.502Z,4.30
2022-10-11T18:30:19.005Z,5.00
2022-10-11T18:32:46.140Z,4.68
2022-10-11T18:35:13.222Z,5.28
2022-10-11T18:37:40.290Z,4.93
2022-10-11T18:40:07.595Z,4.90
2022-10-11T18:42:34.988Z,5.57
2022-10-11T18:45:02.173Z,4.85
2022-10-11T18:47:29.219Z,6.05
2022-10-11T18:49:56.430Z,6.60
2022-10-11T18:52:23.469Z,5.13
2022-10-11T18:54:50.631Z,4.35
2022-10-11T18:57:17.710Z,4.68
2022-10-11T18:59:45.946Z,4.32
2022-10-11T19:02:13.063Z,4.10
2022-10-11T19:04:40.219Z,4.25
2022-10-11T19:07:07.349Z,3.85
2022-10-11T19:09:34.519Z,5.00
2022-10-11T19:12:01.646Z,6.25
2022-10-11T19:14:30.204Z,5.57
2022-10-11T19:16:57.550Z,6.72
2022-10-11T19:19:27.268Z,6.38
2022-10-11T19:21:54.802Z,5.78
2022-10-11T19:24:26.387Z,6.43
2022-10-11T19:26:57.239Z,5.53
2022-10-11T19:29:28.791Z,6.10
2022-10-11T19:31:58.250Z,4.95
2022-10-11T19:34:27.483Z,4.32
2022-10-11T19:36:56.375Z,4.38
2022-10-11T19:39:24.515Z,4.53
2022-10-11T19:41:51.773Z,5.30
2022-10-11T19:44:19.089Z,4.35
2022-10-11T19:46:53.472Z,6.57
2022-10-11T19:49:24.882Z,5.47
2022-10-11T19:51:53.327Z,6.53
2022-10-11T19:54:20.394Z,5.00
2022-10-11T19:56:47.811Z,4.78
2022-10-11T19:59:15.333Z,5.35
2022-10-11T20:01:42.839Z,5.45
2022-10-11T20:04:22.959Z,5.87
2022-10-11T20:06:58.775Z,6.25
2022-10-11T20:09:30.317Z,5.55
2022-10-11T20:11:58.219Z,6.40
2022-10-11T20:14:25.497Z,6.53
2022-10-11T20:16:52.646Z,5.33
2022-10-11T20:19:20.045Z,5.45
2022-10-11T20:21:47.730Z,5.80
2022-10-11T20:24:14.807Z,5.40
2022-10-11T20:26:41.912Z,4.82
2022-10-11T20:29:08.990Z,4.67
2022-10-11T20:31:41.749Z,4.90
2022-10-11T20:34:09.537Z,4.38
2022-10-11T20:36:37.263Z,4.75
2022-10-11T20:39:05.894Z,4.53
2022-10-11T20:41:37.017Z,4.53
2022-10-11T20:44:05.097Z,4.65
2022-10-11T20:46:33.973Z,4.43
2022-10-11T20:49:13.412Z,4.35
2022-10-11T20:51:41.850Z,4.30
2022-10-11T20:54:10.194Z,4.80
2022-10-11T20:56:37.772Z,4.68
2022-10-11T20:59:06.074Z,5.47
2022-10-11T21:01:35.593Z,5.20
2022-10-11T21:04:03.600Z,5.25
2022-10-11T21:06:31.854Z,5.70
2022-10-11T21:08:59.471Z,5.70
2022-10-11T21:11:31.241Z,5.75
2022-10-11T21:14:00.442Z,6.00
2022-10-11T21:16:28.368Z,5.50
2022-10-11T21:18:56.583Z,4.60
2022-10-11T21:21:24.159Z,5.95
2022-10-11T21:23:55.357Z,5.53
2022-10-11T21:26:22.620Z,4.60
2022-10-11T21:28:49.841Z,5.53
2022-10-11T21:31:18.843Z,5.23
2022-10-11T21:33:46.048Z,5.47
2022-10-11T21:36:21.018Z,5.35
2022-10-11T21:38:48.666Z,5.40
2022-10-11T21:41:19.095Z,4.57
2022-10-11T21:43:47.133Z,4.30
2022-10-11T21:46:16.533Z,5.07
2022-10-11T21:48:43.834Z,5.00
2022-10-11T21:51:36.950Z,5.05
2022-10-11T21:54:05.209Z,5.22
2022-10-11T21:56:32.377Z,4.97
2022-10-11T21:58:59.476Z,5.75
2022-10-11T22:01:26.763Z,4.80
2022-10-11T22:03:54.460Z,5.53
2022-10-11T22:06:21.837Z,5.30
2022-10-11T22:08:50.139Z,4.77
2022-10-11T22:11:17.603Z,4.93
2022-10-11T22:13:46.960Z,4.57
2022-10-11T22:16:14.242Z,5.15
2022-10-11T22:18:42.413Z,5.57
2022-10-11T22:21:17.648Z,4.77
2022-10-11T22:23:47.031Z,5.18
2022-10-11T22:26:16.917Z,5.93
2022-10-11T22:28:46.433Z,5.65
2022-10-11T22:31:14.206Z,5.03
2022-10-11T22:33:42.079Z,5.50
2022-10-11T22:36:12.103Z,5.35
2022-10-11T22:38:40.971Z,4.90
2022-10-11T22:41:08.679Z,5.15
2022-10-11T22:43:35.817Z,5.28
2022-10-11T22:46:02.954Z,5.33
2022-10-11T22:48:30.061Z,5.75
2022-10-11T22:50:57.166Z,6.15
2022-10-11T22:53:24.202Z,5.28
2022-10-11T22:55:51.319Z,5.57
2022-10-11T22:58:18.358Z,7.33
2022-10-11T23:00:45.726Z,5.53
2022-10-11T23:03:13.602Z,5.45
2022-10-11T23:05:40.870Z,5.78
2022-10-11T23:08:09.613Z,6.40
2022-10-11T23:10:40.321Z,5.40
2022-10-11T23:13:07.868Z,6.63
2022-10-11T23:15:35.228Z,5.85
2022-10-11T23:18:02.254Z,6.30
2022-10-11T23:20:29.311Z,5.80
2022-10-11T23:22:57.540Z,5.67
2022-10-11T23:25:24.619Z,4.75
2022-10-11T23:27:51.649Z,5.00
2022-10-11T23:30:18.855Z,4.93
2022-10-11T23:32:45.938Z,5.35
2022-10-11T23:35:13.036Z,4.80
2022-10-11T23:37:40.201Z,5.60
2022-10-11T23:40:08.368Z,5.00
2022-10-11T23:42:35.453Z,5.47
2022-10-11T23:45:02.520Z,4.97
2022-10-11T23:47:29.756Z,5.37
2022-10-11T23:49:57.139Z,5.18
2022-10-11T23:52:24.270Z,5.80
2022-10-11T23:54:51.592Z,4.88
2022-10-11T23:57:18.683Z,5.60
2022-10-11T23:59:45.745Z,4.87
